Terminal Aerodrome Forecast
Issued by NWS

Home | Current Version | Previous Version | Text Only | Print | Product List | Glossary On
Versions: 1 2 3 4 5 6 7 8 9 10 11 12 13 14 15 16 17 18 19 20
000
FTUS43 KDMX 150711 AAB
TAFOTM
TAF AMD
KOTM 150711Z 1507/1606 29005KT P6SM OVC035
     FM150800 29005KT P6SM SCT015 BKN023
      TEMPO 1508/1511 -FZDZSN BKN015
     FM151200 28010KT P6SM BKN040
     FM151800 26011G19KT P6SM BKN060
     FM152300 23008KT P6SM BKN100=

USA.gov is the U.S. government's official web portal to all federal, state and local government web resources and services.